In Rescue
 
Open Full Screen Window  High Contrast Mode
July 25, 2021 9:43 AM EDT
Weather Information
Wind Direction
  ---
Wind Speed
  00 kt (0 mph)
Wind Gust
  00 kt (0 mph)
Altimeter
29.94 in
Visibility
10 SM
Temperature
25° C
77° F
Dewpoint
21° C
70° F
Humidity
79%
Sky Condition
Clear
VFR

METAR KLWA 251343Z AUTO 00000KT 10SM CLR 25/21 A2994 RMK AO2 T02500209

FAA Disclaimer: The data displayed is for advisory purposes only and is not to be used for flight planning or operations.